Time;durP1;ratioP1;P1;durP2;ratioP2;P2;SDS_P1;SDS_P2;PMS_P1;PMS_P2;Temp;Humidity;BMP_temperature;BMP_pressure;BME280_temperature;BME280_humidity;BME280_pressure;Samples;Min_cycle;Max_cycle;Signal;HPM_P1;HPM_P2
2021/11/09 00:01:02;;;;;;;31.80;11.77;;;5.90;99.90;;;;;;5044954;28;20052;-61
2021/11/09 00:03:35;;;;;;;45.30;10.55;;;5.80;99.90;;;;;;5046210;28;20025;-64
2021/11/09 00:06:12;;;;;;;42.88;13.27;;;5.70;99.90;;;;;;5039445;28;20028;-62
2021/11/09 00:08:43;;;;;;;32.72;11.40;;;5.80;99.90;;;;;;5041709;28;20437;-62
2021/11/09 00:11:09;;;;;;;42.30;11.88;;;5.80;99.90;;;;;;5035642;28;20022;-63
2021/11/09 00:13:35;;;;;;;45.88;11.93;;;5.60;99.90;;;;;;5040716;28;20501;-61
2021/11/09 00:16:00;;;;;;;44.50;12.75;;;5.50;99.90;;;;;;5039764;28;20376;-61
2021/11/09 00:18:26;;;;;;;32.72;11.25;;;5.40;99.90;;;;;;5040954;28;20517;-63
2021/11/09 00:20:52;;;;;;;39.78;12.38;;;5.40;99.90;;;;;;5043985;28;20033;-63
2021/11/09 00:23:18;;;;;;;31.55;11.35;;;5.40;99.90;;;;;;5041726;28;20052;-63
2021/11/09 00:25:44;;;;;;;46.55;11.30;;;5.50;99.90;;;;;;5038778;28;20060;-62
2021/11/09 00:28:11;;;;;;;29.73;11.07;;;5.50;99.90;;;;;;5044961;28;20475;-62
2021/11/09 00:30:37;;;;;;;43.78;12.70;;;5.50;99.90;;;;;;5036865;28;20380;-62
2021/11/09 00:33:04;;;;;;;39.40;11.52;;;5.40;99.90;;;;;;5039356;28;20546;-61
2021/11/09 00:35:31;;;;;;;30.63;11.93;;;5.30;99.90;;;;;;5044519;28;20048;-63
2021/11/09 00:37:58;;;;;;;37.50;11.57;;;5.30;99.90;;;;;;5040363;28;20035;-62
2021/11/09 00:40:27;;;;;;;36.78;12.38;;;5.20;99.90;;;;;;5036478;28;20034;-62
2021/11/09 00:42:53;;;;;;;34.40;12.43;;;5.10;99.90;;;;;;5043702;28;20147;-63
2021/11/09 00:45:19;;;;;;;40.85;12.55;;;5.10;99.90;;;;;;5040146;28;20446;-64
2021/11/09 00:47:45;;;;;;;43.65;12.35;;;5.00;99.90;;;;;;5034294;28;20084;-62
2021/11/09 00:50:13;;;;;;;44.10;11.80;;;5.00;99.90;;;;;;5041893;28;20550;-63
2021/11/09 00:52:39;;;;;;;29.40;11.32;;;4.90;99.90;;;;;;5039043;28;20033;-63
2021/11/09 00:55:06;;;;;;;34.63;11.98;;;4.90;99.90;;;;;;5040701;28;20201;-63
2021/11/09 00:57:31;;;;;;;41.88;11.88;;;4.80;99.90;;;;;;5041997;28;20402;-62
2021/11/09 00:59:57;;;;;;;40.95;11.90;;;4.80;99.90;;;;;;5043798;28;20039;-63
2021/11/09 01:02:23;;;;;;;34.05;11.07;;;4.70;99.90;;;;;;5038786;28;20122;-63
2021/11/09 01:04:48;;;;;;;42.28;12.90;;;4.80;99.90;;;;;;5044720;28;20060;-63
2021/11/09 01:07:14;;;;;;;28.08;11.60;;;4.70;99.90;;;;;;5037677;28;20067;-63
2021/11/09 01:09:39;;;;;;;40.38;11.93;;;4.80;99.90;;;;;;5046169;28;20025;-63
2021/11/09 01:12:07;;;;;;;37.17;12.13;;;4.80;99.90;;;;;;5045155;28;20025;-62
2021/11/09 01:14:33;;;;;;;34.67;13.00;;;4.80;99.90;;;;;;5048860;28;20532;-63
2021/11/09 01:16:59;;;;;;;37.47;12.02;;;4.80;99.90;;;;;;5045139;28;20033;-65
2021/11/09 01:19:25;;;;;;;32.45;12.07;;;4.80;99.90;;;;;;5047928;28;20036;-64
2021/11/09 01:21:51;;;;;;;35.97;12.05;;;4.60;99.90;;;;;;5042664;28;20102;-61
2021/11/09 01:24:18;;;;;;;24.38;11.32;;;4.60;99.90;;;;;;5040999;28;20491;-63
2021/11/09 01:26:45;;;;;;;33.60;10.43;;;4.50;99.90;;;;;;5045115;28;20040;-63
2021/11/09 01:29:12;;;;;;;29.73;11.23;;;4.50;99.90;;;;;;5045741;28;20460;-63
2021/11/09 01:31:38;;;;;;;33.88;11.18;;;4.50;99.90;;;;;;5044895;28;20506;-64
2021/11/09 01:34:04;;;;;;;48.10;12.68;;;4.50;99.90;;;;;;5045902;28;20402;-63
2021/11/09 01:36:30;;;;;;;32.22;10.77;;;4.40;99.90;;;;;;5045190;28;20029;-63
2021/11/09 01:38:56;;;;;;;39.15;11.55;;;4.50;99.90;;;;;;5042469;28;20033;-62
2021/11/09 01:41:22;;;;;;;35.95;12.07;;;4.40;99.90;;;;;;5043619;28;20021;-61
2021/11/09 01:43:49;;;;;;;28.13;10.25;;;4.40;99.90;;;;;;5043859;28;20039;-62
2021/11/09 01:46:16;;;;;;;32.97;9.60;;;4.40;99.90;;;;;;5039811;28;20033;-62
2021/11/09 01:48:42;;;;;;;25.48;10.27;;;4.40;99.90;;;;;;5032627;28;20387;-62
2021/11/09 01:51:11;;;;;;;32.38;10.25;;;4.40;99.90;;;;;;5034643;28;20025;-61
2021/11/09 01:53:38;;;;;;;32.25;10.50;;;4.40;99.90;;;;;;5038410;28;20049;-62
2021/11/09 01:56:08;;;;;;;36.63;11.23;;;4.40;99.90;;;;;;5038728;28;20053;-62
2021/11/09 01:58:35;;;;;;;32.00;9.38;;;4.40;99.90;;;;;;5041889;28;20035;-62
2021/11/09 02:01:13;;;;;;;24.08;10.23;;;4.30;99.90;;;;;;5024424;28;20025;-63
2021/11/09 02:03:42;;;;;;;33.85;10.10;;;4.30;99.90;;;;;;5021520;28;20029;-62
2021/11/09 02:06:09;;;;;;;30.63;10.40;;;4.20;99.90;;;;;;5039879;28;20048;-63
2021/11/09 02:08:35;;;;;;;30.75;12.23;;;4.10;99.90;;;;;;5039894;28;20067;-62
2021/11/09 02:11:00;;;;;;;36.03;12.98;;;4.10;99.90;;;;;;5044342;28;20052;-63
2021/11/09 02:13:26;;;;;;;39.35;10.90;;;4.10;99.90;;;;;;5043367;28;20035;-62
2021/11/09 02:15:52;;;;;;;32.08;10.40;;;4.20;99.90;;;;;;5053815;28;20385;-62
2021/11/09 02:18:19;;;;;;;33.65;11.38;;;4.10;99.90;;;;;;5040318;28;20043;-61
2021/11/09 02:20:51;;;;;;;31.67;10.50;;;4.10;99.90;;;;;;5037453;28;20043;-62
2021/11/09 02:23:16;;;;;;;31.48;10.00;;;4.00;99.90;;;;;;5041549;28;20115;-63
2021/11/09 02:25:42;;;;;;;31.40;11.15;;;3.90;99.90;;;;;;5033019;28;20116;-63
2021/11/09 02:28:08;;;;;;;33.40;11.63;;;3.90;99.90;;;;;;5043830;28;20044;-63
2021/11/09 02:30:33;;;;;;;38.45;12.80;;;3.80;99.90;;;;;;5035028;28;20037;-61
2021/11/09 02:33:00;;;;;;;45.60;12.38;;;3.80;99.90;;;;;;5040252;28;20025;-60
2021/11/09 02:35:26;;;;;;;37.88;11.68;;;3.70;99.90;;;;;;5039296;28;20035;-61
2021/11/09 02:37:54;;;;;;;34.78;11.30;;;3.70;99.90;;;;;;5036939;28;20033;-63
2021/11/09 02:40:20;;;;;;;37.15;11.48;;;3.70;99.90;;;;;;5043732;28;20407;-61
2021/11/09 02:42:50;;;;;;;35.10;10.60;;;3.70;99.90;;;;;;5038863;28;20741;-62
2021/11/09 02:45:25;;;;;;;24.60;9.85;;;3.70;99.90;;;;;;5031664;28;20413;-62
2021/11/09 02:47:59;;;;;;;24.70;9.80;;;3.70;99.90;;;;;;5031396;28;20041;-62
2021/11/09 02:50:30;;;;;;;35.10;10.65;;;3.70;99.90;;;;;;5036939;28;20035;-63
2021/11/09 02:53:31;;;;;;;28.63;9.45;;;3.70;99.90;;;;;;5021633;28;20052;-63
2021/11/09 02:55:49;;;;;;;34.72;9.40;;;3.80;99.90;;;;;;5039592;28;20037;-63
2021/11/09 02:58:42;;;;;;;25.13;8.77;;;3.90;99.90;;;;;;5039782;28;20021;-60
2021/11/09 03:01:19;;;;;;;23.48;9.15;;;3.90;99.90;;;;;;5035944;28;20044;-62
2021/11/09 03:08:59;;;;;;;35.03;9.93;;;4.10;99.90;;;;;;5035281;28;20056;-63
2021/11/09 03:11:26;;;;;;;27.65;8.43;;;4.10;99.90;;;;;;5032470;28;20021;-63
2021/11/09 03:13:53;;;;;;;19.23;8.55;;;4.10;99.90;;;;;;5042483;28;20384;-61
2021/11/09 03:16:19;;;;;;;28.50;9.45;;;4.20;99.90;;;;;;5035937;28;20037;-62
2021/11/09 03:46:36;;;;;;;24.58;10.13;;;3.60;99.90;;;;;;5045050;28;19920;-62
2021/11/09 03:49:05;;;;;;;29.17;9.85;;;3.60;99.90;;;;;;5075508;23;20052;-57
2021/11/09 03:51:31;;;;;;;38.03;9.35;;;3.70;99.90;;;;;;5070174;28;20191;-55
2021/11/09 03:53:59;;;;;;;38.50;10.80;;;3.70;99.90;;;;;;5067732;28;20021;-60
2021/11/09 03:56:30;;;;;;;25.92;10.07;;;3.60;99.90;;;;;;5071147;28;20069;-57
2021/11/09 03:58:58;;;;;;;22.38;8.70;;;3.60;99.90;;;;;;5049445;28;20075;-57
2021/11/09 04:01:31;;;;;;;27.33;11.48;;;3.60;99.90;;;;;;5048233;28;20021;-54
2021/11/09 04:06:39;;;;;;;39.50;9.60;;;3.70;99.90;;;;;;5050091;28;20033;-57
2021/11/09 04:09:28;;;;;;;30.40;10.95;;;3.70;99.90;;;;;;5048889;28;20052;-56
2021/11/09 04:14:45;;;;;;;35.88;9.77;;;3.40;99.90;;;;;;5052288;28;20120;-55
2021/11/09 04:17:16;;;;;;;33.30;9.10;;;3.40;99.90;;;;;;5049015;28;20036;-57
2021/11/09 04:19:51;;;;;;;33.28;8.52;;;3.50;99.90;;;;;;5052211;28;20102;-56
2021/11/09 04:25:17;;;;;;;31.50;8.73;;;3.50;99.90;;;;;;5053320;28;20044;-54
2021/11/09 04:28:00;;;;;;;27.25;7.88;;;3.60;99.90;;;;;;5045153;28;20029;-54
2021/11/09 05:02:50;;;;;;;28.85;8.88;;;3.20;99.90;;;;;;5042145;28;20040;-56
2021/11/09 05:10:46;;;;;;;34.72;9.55;;;3.00;99.90;;;;;;5049413;28;20403;-53
2021/11/09 05:13:12;;;;;;;30.70;9.60;;;3.10;99.90;;;;;;5047767;28;20029;-55
2021/11/09 05:15:37;;;;;;;33.03;10.18;;;3.20;99.90;;;;;;5051695;28;20036;-57
2021/11/09 05:18:04;;;;;;;38.72;12.25;;;3.30;99.90;;;;;;5050304;28;20029;-52
2021/11/09 05:20:30;;;;;;;37.58;10.68;;;3.30;99.90;;;;;;5047671;28;20033;-57
2021/11/09 05:22:57;;;;;;;22.45;9.85;;;3.40;99.90;;;;;;5051199;28;20101;-54
2021/11/09 05:25:22;;;;;;;27.88;9.63;;;3.30;99.90;;;;;;5049786;28;20556;-57
2021/11/09 05:27:48;;;;;;;30.38;10.55;;;3.30;99.90;;;;;;5050507;28;20029;-57
2021/11/09 05:30:16;;;;;;;30.85;9.88;;;3.20;99.90;;;;;;5051728;28;20028;-54
2021/11/09 05:32:42;;;;;;;25.08;9.57;;;3.00;99.90;;;;;;5049358;28;20020;-55
2021/11/09 05:35:08;;;;;;;29.63;10.88;;;2.90;99.90;;;;;;5048640;28;20056;-56
2021/11/09 05:37:40;;;;;;;22.67;9.98;;;2.90;99.90;;;;;;5047533;28;20031;-55
2021/11/09 05:40:07;;;;;;;25.45;10.07;;;3.00;99.90;;;;;;5048271;28;20025;-57
2021/11/09 05:42:33;;;;;;;37.88;10.00;;;3.00;99.90;;;;;;5044484;28;20028;-54
2021/11/09 05:44:59;;;;;;;25.88;9.32;;;3.00;99.90;;;;;;5049091;28;20111;-56
2021/11/09 05:47:25;;;;;;;29.95;9.50;;;3.00;99.90;;;;;;5045381;28;20112;-53
2021/11/09 05:49:50;;;;;;;20.77;9.50;;;3.00;99.90;;;;;;5051050;28;20064;-55
2021/11/09 05:52:16;;;;;;;29.48;8.88;;;3.10;99.90;;;;;;5049286;28;20489;-56
2021/11/09 05:54:42;;;;;;;37.58;9.82;;;3.20;99.90;;;;;;5048936;28;20414;-56
2021/11/09 05:57:08;;;;;;;22.00;8.30;;;3.20;99.90;;;;;;5049562;28;20132;-56
2021/11/09 05:59:33;;;;;;;27.52;9.30;;;3.30;99.90;;;;;;5046356;28;20034;-53
2021/11/09 06:01:59;;;;;;;34.35;8.95;;;3.30;99.90;;;;;;5043219;28;20028;-54
2021/11/09 06:04:26;;;;;;;31.25;10.52;;;3.30;99.90;;;;;;5049610;28;20100;-57
2021/11/09 06:06:52;;;;;;;36.88;9.90;;;3.20;99.90;;;;;;5046744;28;20037;-54
2021/11/09 06:09:18;;;;;;;31.85;9.13;;;3.10;99.90;;;;;;5051734;28;20025;-54
2021/11/09 06:11:44;;;;;;;31.00;9.70;;;3.00;99.90;;;;;;5051098;28;20089;-55
2021/11/09 06:14:10;;;;;;;23.42;8.88;;;2.90;99.90;;;;;;5049089;28;20029;-59
2021/11/09 06:16:37;;;;;;;27.42;9.18;;;2.90;99.90;;;;;;5047318;28;20491;-57
2021/11/09 06:19:04;;;;;;;26.65;9.98;;;2.90;99.90;;;;;;5047727;28;20082;-54
2021/11/09 06:21:30;;;;;;;33.83;10.48;;;2.80;99.90;;;;;;5050565;28;20039;-61
2021/11/09 06:23:56;;;;;;;38.30;10.70;;;2.90;99.90;;;;;;5045998;28;20430;-61
2021/11/09 06:26:22;;;;;;;28.10;10.00;;;2.90;99.90;;;;;;5048691;28;20064;-62
2021/11/09 06:28:48;;;;;;;28.83;9.55;;;2.90;99.90;;;;;;5049473;28;20501;-62
2021/11/09 06:31:14;;;;;;;22.95;9.32;;;2.80;99.90;;;;;;5044314;28;20021;-63
2021/11/09 06:33:40;;;;;;;29.48;10.60;;;2.80;99.90;;;;;;5050853;28;20032;-58
2021/11/09 06:36:06;;;;;;;28.92;10.40;;;2.90;99.90;;;;;;5050409;28;20452;-62
2021/11/09 06:38:32;;;;;;;26.15;10.88;;;2.90;99.90;;;;;;5050138;28;20025;-61
2021/11/09 06:40:58;;;;;;;33.17;10.75;;;2.90;99.90;;;;;;5048447;28;20033;-60
2021/11/09 06:43:23;;;;;;;34.97;9.93;;;3.00;99.90;;;;;;5050767;28;20082;-60
2021/11/09 06:45:49;;;;;;;30.83;10.00;;;3.00;99.90;;;;;;5046048;28;20031;-61
2021/11/09 06:48:18;;;;;;;36.88;10.18;;;3.10;99.90;;;;;;5045539;28;20549;-59
2021/11/09 06:50:43;;;;;;;33.92;9.70;;;3.20;99.90;;;;;;5045354;28;20021;-59
2021/11/09 06:53:09;;;;;;;35.50;10.30;;;3.20;99.90;;;;;;5041624;28;20040;-63
2021/11/09 06:55:37;;;;;;;27.30;9.63;;;3.20;99.90;;;;;;5029427;28;20032;-60
2021/11/09 06:58:03;;;;;;;26.52;9.65;;;3.20;99.90;;;;;;5028638;28;20036;-60
2021/11/09 07:00:29;;;;;;;23.30;10.40;;;3.30;99.90;;;;;;5048394;28;20052;-57
2021/11/09 07:02:55;;;;;;;40.60;10.48;;;3.20;99.90;;;;;;5029758;28;20059;-62
2021/11/09 07:05:22;;;;;;;22.70;9.38;;;3.20;99.90;;;;;;5047709;28;20032;-60
2021/11/09 07:07:48;;;;;;;28.50;10.77;;;3.20;99.90;;;;;;5049275;28;20514;-62
2021/11/09 07:10:14;;;;;;;26.60;9.57;;;3.10;99.90;;;;;;5049836;28;20040;-61
2021/11/09 07:12:41;;;;;;;34.78;11.00;;;3.10;99.90;;;;;;5049002;28;20039;-63
2021/11/09 07:15:07;;;;;;;30.95;10.40;;;3.10;99.90;;;;;;5049527;28;20032;-59
2021/11/09 07:17:33;;;;;;;31.02;11.20;;;3.20;99.90;;;;;;5050022;28;20108;-60
2021/11/09 07:19:59;;;;;;;32.47;10.70;;;3.30;99.90;;;;;;5049833;28;20104;-62
2021/11/09 07:22:25;;;;;;;31.65;10.45;;;3.30;99.90;;;;;;5050318;28;20032;-59
2021/11/09 07:24:51;;;;;;;43.55;11.27;;;3.30;99.90;;;;;;5046213;28;20024;-60
2021/11/09 07:27:17;;;;;;;25.33;10.43;;;3.30;99.90;;;;;;5050451;28;20032;-63
2021/11/09 07:29:50;;;;;;;23.02;10.60;;;3.40;99.90;;;;;;5049421;28;20040;-61
2021/11/09 07:32:17;;;;;;;31.15;10.23;;;3.40;99.90;;;;;;5045012;28;20112;-60
2021/11/09 07:34:44;;;;;;;26.13;11.10;;;3.40;99.90;;;;;;5046080;28;20025;-62
2021/11/09 07:37:10;;;;;;;37.67;12.25;;;3.40;99.90;;;;;;5049749;28;20043;-60
2021/11/09 07:39:36;;;;;;;26.70;10.88;;;3.50;99.90;;;;;;5050083;28;20039;-58
2021/11/09 07:42:03;;;;;;;40.10;12.57;;;3.50;99.90;;;;;;5050296;28;20033;-60
2021/11/09 07:44:29;;;;;;;32.50;10.75;;;3.60;99.90;;;;;;5049713;28;20469;-55
2021/11/09 07:46:55;;;;;;;29.00;11.40;;;3.60;99.90;;;;;;5050641;28;20100;-61
2021/11/09 07:49:21;;;;;;;31.60;11.90;;;3.70;99.90;;;;;;5048711;28;20035;-61
2021/11/09 07:51:47;;;;;;;30.77;11.70;;;3.80;99.90;;;;;;5049319;28;20096;-60
2021/11/09 07:54:12;;;;;;;31.45;12.30;;;3.80;99.90;;;;;;5048339;28;20074;-62
2021/11/09 07:56:40;;;;;;;34.35;11.32;;;3.90;99.90;;;;;;5048718;28;20033;-62
2021/11/09 08:04:26;;;;;;;32.78;12.85;;;4.20;99.90;;;;;;5053461;28;20380;-58
2021/11/09 08:09:22;;;;;;;31.70;12.43;;;4.30;99.90;;;;;;5053257;28;20064;-59
2021/11/09 08:11:49;;;;;;;34.35;12.27;;;4.50;99.90;;;;;;5052535;28;20025;-59
2021/11/09 08:14:15;;;;;;;24.17;11.05;;;4.50;99.90;;;;;;5052825;28;20451;-60
2021/11/09 08:16:42;;;;;;;36.03;12.43;;;4.60;99.90;;;;;;5052673;28;20521;-60
2021/11/09 08:19:08;;;;;;;33.05;12.40;;;4.70;99.90;;;;;;5053333;28;20541;-60
2021/11/09 08:21:36;;;;;;;34.90;11.80;;;4.80;99.90;;;;;;5053329;28;20048;-61
2021/11/09 08:24:02;;;;;;;43.80;13.32;;;4.90;99.90;;;;;;5052736;28;20487;-60
2021/11/09 08:26:28;;;;;;;32.45;12.80;;;5.00;99.90;;;;;;5034051;28;20554;-59
2021/11/09 08:28:55;;;;;;;35.35;14.13;;;5.10;99.90;;;;;;5052922;28;20096;-59
2021/11/09 08:31:23;;;;;;;26.00;11.88;;;5.20;99.90;;;;;;5051604;28;20450;-55
2021/11/09 08:33:50;;;;;;;31.08;12.82;;;5.30;99.90;;;;;;5052010;28;20053;-59
2021/11/09 08:36:22;;;;;;;35.13;13.95;;;5.40;99.90;;;;;;5052739;28;20577;-56
2021/11/09 08:38:48;;;;;;;30.45;12.90;;;5.50;99.90;;;;;;5053482;28;20033;-61
2021/11/09 08:41:14;;;;;;;31.90;12.10;;;5.60;99.90;;;;;;5052492;28;20139;-59
2021/11/09 08:43:46;;;;;;;33.58;11.93;;;5.70;99.90;;;;;;5051747;28;20433;-60
2021/11/09 08:48:44;;;;;;;42.45;13.13;;;5.90;99.90;;;;;;5052219;28;20037;-59
2021/11/09 08:51:11;;;;;;;34.67;12.50;;;6.00;99.90;;;;;;5052454;28;20108;-57
2021/11/09 08:53:51;;;;;;;30.13;12.48;;;6.10;99.90;;;;;;5051625;28;20483;-61
2021/11/09 09:04:19;;;;;;;36.83;12.15;;;6.60;99.90;;;;;;5051615;28;20025;-59
2021/11/09 09:06:57;;;;;;;31.15;12.80;;;6.70;99.90;;;;;;5052339;28;20387;-59
2021/11/09 09:09:23;;;;;;;33.05;12.10;;;6.80;99.90;;;;;;5051579;28;20096;-53
2021/11/09 09:11:49;;;;;;;26.40;12.18;;;7.00;99.90;;;;;;5051969;28;20485;-58
2021/11/09 09:14:18;;;;;;;32.80;11.98;;;7.00;99.90;;;;;;5048575;28;20021;-62
2021/11/09 09:16:46;;;;;;;35.05;13.00;;;7.10;99.90;;;;;;5050867;28;20036;-62
2021/11/09 09:19:14;;;;;;;31.50;11.48;;;7.20;99.90;;;;;;5052151;28;20025;-62
2021/11/09 09:24:24;;;;;;;25.92;12.45;;;7.50;99.90;;;;;;5047803;28;20056;-61
2021/11/09 09:29:41;;;;;;;35.47;11.75;;;7.70;99.90;;;;;;5046615;28;19905;-64
2021/11/09 09:56:54;;;;;;;27.75;9.73;;;8.90;99.90;;;;;;5064239;28;20035;-58
2021/11/09 09:59:22;;;;;;;25.00;10.57;;;9.00;99.90;;;;;;5095167;28;20055;-62
2021/11/09 10:02:19;;;;;;;29.80;10.32;;;9.10;99.90;;;;;;5078185;28;20025;-62
2021/11/09 10:04:45;;;;;;;31.85;11.65;;;9.20;99.90;;;;;;5071541;28;20189;-61
2021/11/09 10:07:13;;;;;;;26.95;9.55;;;9.30;99.90;;;;;;5089120;28;20482;-62
2021/11/09 10:09:44;;;;;;;27.05;9.55;;;9.40;99.90;;;;;;5085370;28;20032;-61
2021/11/09 10:12:22;;;;;;;30.15;10.55;;;9.50;99.90;;;;;;5071305;28;20449;-62
2021/11/09 10:14:54;;;;;;;25.17;10.63;;;9.60;99.90;;;;;;5071513;28;20532;-62
2021/11/09 10:17:25;;;;;;;25.73;9.70;;;9.60;99.90;;;;;;5071261;28;20475;-62
2021/11/09 10:19:52;;;;;;;42.35;11.55;;;9.70;99.90;;;;;;5071294;28;20031;-62
2021/11/09 10:22:21;;;;;;;32.88;9.93;;;9.80;99.90;;;;;;5075352;28;20028;-62
2021/11/09 10:24:58;;;;;;;24.42;9.43;;;9.90;99.90;;;;;;5078101;28;20086;-61
2021/11/09 10:27:25;;;;;;;20.80;9.98;;;9.90;99.90;;;;;;5072084;28;20368;-61
2021/11/09 10:29:52;;;;;;;25.00;8.50;;;10.10;99.90;;;;;;5071730;28;20383;-61
2021/11/09 10:32:27;;;;;;;28.63;10.35;;;10.10;99.90;;;;;;5084007;28;20021;-61
2021/11/09 10:34:56;;;;;;;19.92;9.00;;;10.20;99.90;;;;;;5064375;28;20024;-61
2021/11/09 10:37:25;;;;;;;28.20;11.05;;;10.30;99.90;;;;;;5069957;28;20052;-61
2021/11/09 10:39:55;;;;;;;21.73;9.48;;;10.40;99.90;;;;;;5069455;28;20032;-61
2021/11/09 10:42:26;;;;;;;26.48;8.77;;;10.50;99.90;;;;;;5070344;28;20028;-61
2021/11/09 10:44:58;;;;;;;24.65;9.25;;;10.50;99.90;;;;;;5069637;28;20040;-59
2021/11/09 10:47:30;;;;;;;25.35;7.75;;;10.50;99.90;;;;;;5078946;28;20486;-61
2021/11/09 10:50:05;;;;;;;25.10;8.98;;;10.60;99.90;;;;;;5089884;28;20035;-62
2021/11/09 10:52:37;;;;;;;33.53;8.93;;;10.80;99.90;;;;;;5069920;28;20028;-63
2021/11/09 10:57:55;;;;;;;19.60;7.88;;;10.90;99.90;;;;;;5072202;28;20032;-61
2021/11/09 11:06:33;;;;;;;24.63;8.05;;;11.20;99.90;;;;;;5081995;28;20034;-60
2021/11/09 11:09:11;;;;;;;20.73;7.32;;;11.40;99.90;;;;;;5081600;28;20020;-60
2021/11/09 11:11:54;;;;;;;22.63;7.35;;;11.50;99.90;;;;;;5089878;28;20095;-59
2021/11/09 11:14:25;;;;;;;30.83;7.60;;;11.70;99.90;;;;;;5083387;28;20035;-59
2021/11/09 11:16:50;;;;;;;47.17;9.25;;;11.80;99.90;;;;;;5087376;28;20461;-61
2021/11/09 11:19:30;;;;;;;28.98;9.15;;;11.90;99.90;;;;;;5069567;28;20112;-62
2021/11/09 11:21:58;;;;;;;18.20;5.78;;;11.90;99.90;;;;;;5082691;28;20039;-62
2021/11/09 11:24:24;;;;;;;20.77;6.00;;;12.00;99.90;;;;;;5075637;28;20036;-59
2021/11/09 11:26:51;;;;;;;17.52;5.75;;;12.10;99.90;;;;;;5068860;28;20516;-62
2021/11/09 11:29:23;;;;;;;18.15;6.15;;;12.30;99.90;;;;;;5082441;28;20031;-61
2021/11/09 11:31:50;;;;;;;16.90;5.63;;;12.40;99.90;;;;;;5075417;28;20430;-61
2021/11/09 11:34:18;;;;;;;18.05;6.32;;;12.40;99.90;;;;;;5075514;28;20452;-61
2021/11/09 11:36:44;;;;;;;27.50;6.35;;;12.50;99.90;;;;;;5072237;28;20027;-62
2021/11/09 11:39:11;;;;;;;25.73;5.78;;;12.70;99.90;;;;;;5081758;28;20032;-61
2021/11/09 11:41:41;;;;;;;18.05;5.53;;;12.90;99.90;;;;;;5074445;28;20103;-60
2021/11/09 11:44:09;;;;;;;21.60;5.45;;;13.00;99.90;;;;;;5074052;28;20043;-60
2021/11/09 11:46:35;;;;;;;17.33;4.40;;;13.10;99.90;;;;;;5078725;28;20111;-60
2021/11/09 11:49:15;;;;;;;13.07;4.43;;;13.10;99.90;;;;;;5075196;28;20097;-61
2021/11/09 11:52:02;;;;;;;19.27;4.88;;;13.20;99.90;;;;;;5071480;28;20107;-61
2021/11/09 11:54:53;;;;;;;17.77;5.57;;;13.30;99.90;;;;;;5074430;28;20028;-61
2021/11/09 11:57:46;;;;;;;15.38;4.55;;;13.30;99.90;;;;;;5078190;28;20020;-61
2021/11/09 12:00:42;;;;;;;16.80;4.13;;;13.30;99.90;;;;;;5092132;28;20035;-62
2021/11/09 12:03:23;;;;;;;17.90;4.40;;;13.40;99.90;;;;;;5093745;28;20104;-60
2021/11/09 12:05:54;;;;;;;19.33;4.18;;;13.50;99.90;;;;;;5094048;28;20489;-59
2021/11/09 12:08:40;;;;;;;17.35;4.32;;;13.60;99.90;;;;;;5068906;28;20088;-59
2021/11/09 12:11:09;;;;;;;16.77;3.67;;;13.60;99.90;;;;;;5074338;28;20044;-58
2021/11/09 12:13:55;;;;;;;21.75;4.20;;;13.70;99.90;;;;;;5074097;28;20387;-59
2021/11/09 12:16:54;;;;;;;16.88;4.32;;;13.80;99.90;;;;;;5072129;28;20054;-58
2021/11/09 12:19:35;;;;;;;19.52;4.00;;;13.70;99.90;;;;;;5074323;28;20025;-60
2021/11/09 12:22:09;;;;;;;15.00;3.80;;;13.80;99.90;;;;;;5074032;28;20114;-58
2021/11/09 12:24:58;;;;;;;11.98;3.47;;;13.80;99.90;;;;;;5073597;28;20051;-59
2021/11/09 12:27:30;;;;;;;18.80;3.63;;;13.80;99.90;;;;;;5088204;28;20028;-60
2021/11/09 12:29:58;;;;;;;12.68;3.67;;;13.90;99.90;;;;;;5093257;28;20025;-60
2021/11/09 12:32:32;;;;;;;19.08;3.70;;;14.00;99.90;;;;;;5093177;28;20016;-60
2021/11/09 12:35:05;;;;;;;15.50;3.72;;;13.90;99.90;;;;;;5093164;28;20016;-60
2021/11/09 12:37:37;;;;;;;22.80;4.10;;;13.80;99.90;;;;;;5092120;28;20063;-59
2021/11/09 12:40:22;;;;;;;26.02;3.53;;;13.70;99.90;;;;;;5074436;28;20039;-58
2021/11/09 12:43:08;;;;;;;15.57;3.65;;;13.80;99.90;;;;;;5073205;28;20510;-59
2021/11/09 12:45:37;;;;;;;12.50;3.40;;;13.80;99.90;;;;;;5072918;28;20025;-60
2021/11/09 12:48:05;;;;;;;25.52;3.90;;;13.60;99.90;;;;;;5073534;28;20032;-60
2021/11/09 12:50:32;;;;;;;10.73;3.13;;;13.70;99.90;;;;;;5073727;28;20483;-60
2021/11/09 12:53:08;;;;;;;16.65;3.60;;;13.70;99.90;;;;;;5070986;28;20033;-60
2021/11/09 12:55:34;;;;;;;14.43;3.10;;;13.70;99.90;;;;;;5073203;28;20107;-59
2021/11/09 12:58:35;;;;;;;8.25;2.33;;;13.60;99.90;;;;;;5072967;28;20042;-60
2021/11/09 13:09:51;;;;;;;16.95;3.60;;;13.50;99.90;;;;;;5089868;28;20052;-60
2021/11/09 13:12:20;;;;;;;12.68;3.42;;;13.40;99.90;;;;;;5076623;28;20019;-61
2021/11/09 13:14:47;;;;;;;15.32;3.35;;;13.40;99.90;;;;;;5078501;28;20374;-61
2021/11/09 13:17:20;;;;;;;11.45;4.30;;;13.30;99.90;;;;;;5072482;28;20021;-60
2021/11/09 13:19:55;;;;;;;12.73;2.80;;;13.30;99.90;;;;;;5072457;28;20025;-61
2021/11/09 13:22:28;;;;;;;19.15;3.33;;;13.40;99.90;;;;;;5070216;28;20103;-60
2021/11/09 13:25:06;;;;;;;10.82;3.50;;;13.30;99.90;;;;;;5069635;28;20032;-61
2021/11/09 13:27:46;;;;;;;5.10;2.47;;;13.30;99.90;;;;;;5072294;28;20566;-58
2021/11/09 13:30:24;;;;;;;14.30;3.33;;;13.40;99.90;;;;;;5083473;28;20086;-61
2021/11/09 13:32:55;;;;;;;23.02;3.75;;;13.40;99.90;;;;;;5071496;28;20035;-59
2021/11/09 13:35:20;;;;;;;15.95;3.05;;;13.40;99.90;;;;;;5070345;28;20453;-58
2021/11/09 13:37:47;;;;;;;10.68;2.92;;;13.40;99.90;;;;;;5077151;28;20040;-61
2021/11/09 13:40:13;;;;;;;12.82;2.67;;;13.40;99.90;;;;;;5080984;28;20036;-61
2021/11/09 13:42:40;;;;;;;11.90;2.85;;;13.40;99.90;;;;;;5090605;28;20024;-62
2021/11/09 13:45:16;;;;;;;9.50;2.70;;;13.30;99.90;;;;;;5074011;28;20028;-61
2021/11/09 13:47:42;;;;;;;14.43;3.83;;;13.30;99.90;;;;;;5072681;28;20054;-59
2021/11/09 13:50:13;;;;;;;11.85;3.50;;;13.30;99.90;;;;;;5086600;28;20021;-59
2021/11/09 13:52:45;;;;;;;13.15;3.45;;;13.30;99.90;;;;;;5077196;28;20024;-60
2021/11/09 13:55:11;;;;;;;11.77;2.65;;;13.30;99.90;;;;;;5071136;28;20025;-58
2021/11/09 13:57:37;;;;;;;7.50;3.03;;;13.20;99.90;;;;;;5071241;28;20039;-59
2021/11/09 14:00:34;;;;;;;10.90;3.00;;;13.20;99.90;;;;;;5068144;28;20024;-60
2021/11/09 14:16:37;;;;;;;6.93;2.00;;;13.40;99.90;;;;;;5067373;28;20040;-59
2021/11/09 14:19:05;;;;;;;8.95;2.00;;;13.60;99.90;;;;;;5066408;28;20032;-57
2021/11/09 14:21:34;;;;;;;6.57;2.72;;;13.50;99.90;;;;;;5070781;28;20486;-62
2021/11/09 14:24:22;;;;;;;10.80;2.67;;;13.10;99.90;;;;;;5069318;28;20175;-61
2021/11/09 14:27:00;;;;;;;13.32;2.20;;;12.80;99.90;;;;;;5069190;28;20393;-60
2021/11/09 14:29:26;;;;;;;9.48;2.35;;;12.60;99.90;;;;;;5070220;28;20076;-60
2021/11/09 14:32:17;;;;;;;10.43;2.78;;;12.50;99.90;;;;;;5067924;28;20032;-61
2021/11/09 14:35:04;;;;;;;16.83;3.33;;;12.40;99.90;;;;;;5066150;28;20390;-59
2021/11/09 14:37:36;;;;;;;7.45;2.70;;;12.20;99.90;;;;;;5067835;28;20112;-62
2021/11/09 14:40:13;;;;;;;12.50;2.70;;;12.20;99.90;;;;;;5066942;28;20028;-60
2021/11/09 14:45:34;;;;;;;22.35;3.47;;;12.00;99.90;;;;;;5070644;28;20044;-60
2021/11/09 14:48:21;;;;;;;15.05;3.42;;;12.00;99.90;;;;;;5063597;28;20596;-61
2021/11/09 14:53:31;;;;;;;14.45;3.25;;;11.80;99.90;;;;;;5061455;28;20040;-63
2021/11/09 14:56:14;;;;;;;9.55;2.65;;;11.70;99.90;;;;;;5060807;28;20107;-63
2021/11/09 14:58:46;;;;;;;8.10;2.30;;;11.70;99.90;;;;;;5057527;28;20056;-60
2021/11/09 15:01:34;;;;;;;11.40;3.60;;;11.60;99.90;;;;;;5054739;28;20036;-62
2021/11/09 15:04:04;;;;;;;8.15;2.63;;;11.60;99.90;;;;;;5054810;28;20029;-62
2021/11/09 15:12:06;;;;;;;14.43;3.30;;;11.40;99.90;;;;;;5061300;28;20035;-63
2021/11/09 15:28:12;;;;;;;11.35;3.50;;;11.00;99.90;;;;;;5056673;28;20025;-63
2021/11/09 15:31:00;;;;;;;9.80;2.83;;;11.00;99.90;;;;;;5058481;28;20039;-62
2021/11/09 15:33:35;;;;;;;14.40;3.65;;;10.90;99.90;;;;;;5059139;28;20032;-60
2021/11/09 15:38:36;;;;;;;10.20;3.60;;;10.80;99.90;;;;;;5075028;28;20032;-61
2021/11/09 15:41:03;;;;;;;16.35;4.15;;;10.60;99.90;;;;;;5058242;28;20103;-63
2021/11/09 15:43:32;;;;;;;11.60;3.45;;;10.60;99.90;;;;;;5056103;28;20461;-61
2021/11/09 15:46:00;;;;;;;12.73;3.72;;;10.50;99.90;;;;;;5055352;28;20025;-63
2021/11/09 15:48:26;;;;;;;15.43;3.55;;;10.40;99.90;;;;;;5059257;28;20090;-60
2021/11/09 15:50:53;;;;;;;14.93;3.65;;;10.30;99.90;;;;;;5051259;28;20033;-63
2021/11/09 15:53:18;;;;;;;11.48;3.67;;;10.20;99.90;;;;;;5055110;28;20024;-62
2021/11/09 15:55:44;;;;;;;9.55;3.47;;;10.10;99.90;;;;;;5057607;28;20134;-65
2021/11/09 15:58:10;;;;;;;13.63;3.30;;;10.10;99.90;;;;;;5055410;28;20154;-62